Time;durP1;ratioP1;P1;durP2;ratioP2;P2;SDS_P1;SDS_P2;PMS_P1;PMS_P2;Temp;Humidity;BMP_temperature;BMP_pressure;BME280_temperature;BME280_humidity;BME280_pressure;Samples;Min_cycle;Max_cycle;Signal;HPM_P1;HPM_P2
2022/09/11 00:02:11;;;;;;;8.70;8.00;;;14.50;99.90;;;;;;4935329;29;20279;-77
2022/09/11 00:04:38;;;;;;;8.00;7.50;;;14.50;99.90;;;;;;4935172;29;20211;-77
2022/09/11 00:07:04;;;;;;;8.03;7.53;;;14.50;99.90;;;;;;4935130;29;20573;-77
2022/09/11 00:09:31;;;;;;;8.17;7.67;;;14.50;99.90;;;;;;4936872;29;20236;-77
2022/09/11 00:11:58;;;;;;;8.13;7.63;;;14.50;99.90;;;;;;4936544;29;20199;-76
2022/09/11 00:14:27;;;;;;;8.30;7.60;;;14.50;99.90;;;;;;4936201;29;20192;-76
2022/09/11 00:16:56;;;;;;;7.80;7.40;;;14.50;99.90;;;;;;4935108;29;20201;-77
2022/09/11 00:19:22;;;;;;;7.73;7.27;;;14.50;99.90;;;;;;4934924;29;20212;-77
2022/09/11 00:21:50;;;;;;;8.40;7.80;;;14.50;99.90;;;;;;4937675;29;20364;-77
2022/09/11 00:24:17;;;;;;;8.40;7.90;;;14.50;99.90;;;;;;4934881;29;20208;-77
2022/09/11 00:26:46;;;;;;;7.73;7.30;;;14.50;99.90;;;;;;4936217;29;20208;-78
2022/09/11 00:29:13;;;;;;;8.27;7.77;;;14.60;99.90;;;;;;4934823;29;20207;-77
2022/09/11 00:31:40;;;;;;;8.00;7.50;;;14.60;99.90;;;;;;4934864;29;20593;-77
2022/09/11 00:34:08;;;;;;;8.03;7.50;;;14.60;99.90;;;;;;4934891;29;20228;-76
2022/09/11 00:36:36;;;;;;;8.47;7.87;;;14.60;99.90;;;;;;4935131;29;20310;-76
2022/09/11 00:39:03;;;;;;;8.10;7.50;;;14.50;99.90;;;;;;4934683;29;20275;-77
2022/09/11 00:41:34;;;;;;;8.07;7.57;;;14.50;99.90;;;;;;4934732;29;20224;-76
2022/09/11 00:44:04;;;;;;;8.13;7.53;;;14.50;99.90;;;;;;4933897;29;20216;-77
2022/09/11 00:46:38;;;;;;;8.40;7.73;;;14.50;99.90;;;;;;4935969;29;20197;-77
2022/09/11 00:49:16;;;;;;;7.80;7.40;;;14.50;99.90;;;;;;4934659;29;20704;-76
2022/09/11 00:51:44;;;;;;;7.83;7.37;;;14.50;99.90;;;;;;4934326;29;20223;-77
2022/09/11 00:54:14;;;;;;;8.37;7.80;;;14.60;99.90;;;;;;4926528;29;20204;-77
2022/09/11 00:56:43;;;;;;;8.33;7.73;;;14.50;99.90;;;;;;4934638;29;20632;-76
2022/09/11 00:59:11;;;;;;;7.93;7.43;;;14.50;99.90;;;;;;4934080;29;20299;-76
2022/09/11 01:01:37;;;;;;;7.90;7.30;;;14.50;99.90;;;;;;4934166;29;20704;-76
2022/09/11 01:04:06;;;;;;;8.17;7.57;;;14.60;99.90;;;;;;4933986;29;20212;-77
2022/09/11 01:06:34;;;;;;;8.03;7.37;;;14.60;99.90;;;;;;4934010;29;20207;-77
2022/09/11 01:09:01;;;;;;;7.90;7.40;;;14.50;99.90;;;;;;4935463;29;20195;-77
2022/09/11 01:11:45;;;;;;;8.43;7.83;;;14.50;99.90;;;;;;4934130;29;20816;-76
2022/09/11 01:14:27;;;;;;;8.10;7.50;;;14.40;99.90;;;;;;4942660;29;20207;-77
2022/09/11 01:16:59;;;;;;;8.20;7.60;;;14.40;99.90;;;;;;4934048;29;20630;-77
2022/09/11 01:19:41;;;;;;;8.40;7.80;;;14.40;99.90;;;;;;4934284;29;20669;-76
2022/09/11 01:22:30;;;;;;;8.10;7.53;;;14.40;99.90;;;;;;4935289;29;20283;-76
2022/09/11 01:25:09;;;;;;;7.83;7.43;;;14.40;99.90;;;;;;4933902;29;20282;-76
2022/09/11 01:27:42;;;;;;;7.97;7.47;;;14.50;99.90;;;;;;4934284;29;20257;-77
2022/09/11 01:30:11;;;;;;;8.50;7.70;;;14.50;99.90;;;;;;4935147;29;20298;-77
2022/09/11 01:32:48;;;;;;;8.47;7.87;;;14.50;99.90;;;;;;4933876;29;20191;-77
2022/09/11 01:35:20;;;;;;;8.20;7.70;;;14.50;99.90;;;;;;4928630;29;20188;-77
2022/09/11 01:37:53;;;;;;;8.33;7.70;;;14.50;99.90;;;;;;4934122;29;20195;-77
2022/09/11 01:40:26;;;;;;;8.27;7.77;;;14.40;99.90;;;;;;4934399;29;20726;-77
2022/09/11 01:43:02;;;;;;;8.10;7.60;;;14.50;99.90;;;;;;4933637;29;20233;-76
2022/09/11 01:45:30;;;;;;;8.13;7.63;;;14.50;99.90;;;;;;4933963;29;20209;-77
2022/09/11 01:47:59;;;;;;;8.40;7.87;;;14.50;99.90;;;;;;4933779;29;20268;-76
2022/09/11 01:50:28;;;;;;;8.40;7.80;;;14.50;99.90;;;;;;4933808;29;20223;-76
2022/09/11 01:52:58;;;;;;;8.60;8.00;;;14.50;99.90;;;;;;4933749;29;20207;-77
2022/09/11 01:55:31;;;;;;;8.53;7.97;;;14.50;99.90;;;;;;4935805;29;20210;-77
2022/09/11 01:58:05;;;;;;;8.37;7.77;;;14.60;99.90;;;;;;4937429;29;20199;-77
2022/09/11 02:00:35;;;;;;;8.27;7.67;;;14.60;99.90;;;;;;4937461;29;20260;-78
2022/09/11 02:03:08;;;;;;;8.30;7.70;;;14.60;99.90;;;;;;4937744;29;20642;-77
2022/09/11 02:05:42;;;;;;;8.40;7.90;;;14.60;99.90;;;;;;4937459;29;20204;-76
2022/09/11 02:08:15;;;;;;;8.20;7.70;;;14.60;99.90;;;;;;4934411;29;20210;-77
2022/09/11 02:10:47;;;;;;;7.30;6.80;;;14.60;99.90;;;;;;4937321;29;20261;-77
2022/09/11 02:13:23;;;;;;;4.97;4.57;;;14.50;99.90;;;;;;4930896;29;20563;-76
2022/09/11 02:15:54;;;;;;;9.17;8.67;;;14.50;99.90;;;;;;4937109;29;20211;-77
2022/09/11 02:18:25;;;;;;;11.87;11.07;;;14.50;99.90;;;;;;4936134;29;20672;-76
2022/09/11 02:20:53;;;;;;;6.33;5.93;;;14.50;99.90;;;;;;4936642;29;20234;-77
2022/09/11 02:23:20;;;;;;;5.00;4.63;;;14.50;99.90;;;;;;4938510;29;20705;-76
2022/09/11 02:25:47;;;;;;;3.20;3.00;;;14.50;99.90;;;;;;4938177;29;20201;-77
2022/09/11 02:28:17;;;;;;;4.83;4.43;;;14.50;99.90;;;;;;4937290;29;20203;-77
2022/09/11 02:30:45;;;;;;;4.67;4.37;;;14.50;99.90;;;;;;4937024;29;20219;-77
2022/09/11 02:33:29;;;;;;;5.03;3.50;;;14.50;99.90;;;;;;4929295;29;20193;-76
2022/09/11 02:36:01;;;;;;;6.87;6.27;;;14.50;99.90;;;;;;4937057;29;20207;-77
2022/09/11 02:38:35;;;;;;;7.23;6.73;;;14.50;99.90;;;;;;4937418;29;20210;-77
2022/09/11 02:41:09;;;;;;;2.80;2.60;;;14.50;99.90;;;;;;4936464;29;20227;-77
2022/09/11 02:43:50;;;;;;;4.93;4.63;;;14.50;99.90;;;;;;4936557;29;20230;-77
2022/09/11 02:46:37;;;;;;;5.80;5.30;;;14.50;99.90;;;;;;4945914;29;20202;-78
2022/09/11 02:49:18;;;;;;;9.17;8.50;;;14.50;99.90;;;;;;4936427;29;20207;-78
2022/09/11 02:51:55;;;;;;;6.37;5.87;;;14.50;99.90;;;;;;4929004;29;20289;-77
2022/09/11 02:54:31;;;;;;;7.43;6.80;;;14.50;99.90;;;;;;4933023;29;20222;-78
2022/09/11 02:57:06;;;;;;;3.40;3.10;;;14.50;99.90;;;;;;4936143;29;20239;-78
2022/09/11 02:59:38;;;;;;;5.30;4.90;;;14.40;99.90;;;;;;4936176;29;20670;-78
2022/09/11 03:02:12;;;;;;;4.07;3.67;;;14.50;99.90;;;;;;4935949;29;20209;-77
2022/09/11 03:04:38;;;;;;;3.73;3.20;;;14.40;99.90;;;;;;4935734;29;20195;-78
2022/09/11 03:07:06;;;;;;;3.90;3.37;;;14.40;99.90;;;;;;4935075;29;20638;-78
2022/09/11 03:09:33;;;;;;;3.53;3.13;;;14.40;99.90;;;;;;4941381;29;20727;-77
2022/09/11 03:12:06;;;;;;;3.40;3.10;;;14.40;99.90;;;;;;4937002;29;20226;-78
2022/09/11 03:14:37;;;;;;;7.90;7.20;;;14.40;99.90;;;;;;4936378;29;20337;-79
2022/09/11 03:17:05;;;;;;;6.93;6.30;;;14.30;99.90;;;;;;4936115;29;20211;-77
2022/09/11 03:19:32;;;;;;;8.10;5.90;;;14.30;99.90;;;;;;4936495;29;20200;-77
2022/09/11 03:22:00;;;;;;;6.43;5.83;;;14.30;99.90;;;;;;4936493;29;20221;-77
2022/09/11 03:24:26;;;;;;;5.43;4.93;;;14.30;99.90;;;;;;4935165;29;20203;-77
2022/09/11 03:26:53;;;;;;;4.67;3.90;;;14.20;99.90;;;;;;4935838;29;20225;-78
2022/09/11 03:29:20;;;;;;;4.37;3.50;;;14.30;99.90;;;;;;4932666;29;20263;-77
2022/09/11 03:31:48;;;;;;;6.47;3.93;;;14.30;99.90;;;;;;4930845;29;20221;-77
2022/09/11 03:34:16;;;;;;;4.90;4.47;;;14.30;99.90;;;;;;4935033;29;20574;-77
2022/09/11 03:36:44;;;;;;;5.63;5.10;;;14.30;99.90;;;;;;4935846;29;20616;-78
2022/09/11 03:39:11;;;;;;;4.20;3.80;;;14.30;99.90;;;;;;4941415;28;20196;-78
2022/09/11 03:41:38;;;;;;;4.37;3.90;;;14.30;99.90;;;;;;4947387;28;20246;-78
2022/09/11 03:44:05;;;;;;;7.30;6.60;;;14.30;99.90;;;;;;4934138;29;20659;-74
2022/09/11 03:46:32;;;;;;;7.63;7.07;;;14.30;99.90;;;;;;4934828;29;20202;-73
2022/09/11 03:49:01;;;;;;;4.27;3.70;;;14.30;99.90;;;;;;4940219;29;20208;-74
2022/09/11 03:51:30;;;;;;;5.73;5.23;;;14.30;99.90;;;;;;4934725;29;20219;-74
2022/09/11 03:53:59;;;;;;;4.73;4.40;;;14.30;99.90;;;;;;4934247;29;20231;-74
2022/09/11 03:56:27;;;;;;;4.37;3.97;;;14.40;99.90;;;;;;4934549;29;20195;-74
2022/09/11 03:58:56;;;;;;;4.53;4.07;;;14.40;99.90;;;;;;4934616;29;20306;-74
2022/09/11 04:01:24;;;;;;;6.50;5.90;;;14.40;99.90;;;;;;4935623;29;20596;-74
2022/09/11 04:03:52;;;;;;;6.87;6.27;;;14.40;99.90;;;;;;4934147;29;20225;-74
2022/09/11 04:06:37;;;;;;;5.80;5.13;;;14.40;99.90;;;;;;4934440;29;20195;-73
2022/09/11 04:09:05;;;;;;;6.03;4.17;;;14.40;99.90;;;;;;4934459;29;20224;-74
2022/09/11 04:11:37;;;;;;;4.17;3.57;;;14.50;99.90;;;;;;4935699;29;20375;-76
2022/09/11 04:14:06;;;;;;;3.87;3.53;;;14.50;99.90;;;;;;4933935;29;20197;-77
2022/09/11 04:16:34;;;;;;;5.00;4.50;;;14.50;99.90;;;;;;4934238;29;20625;-76
2022/09/11 04:19:01;;;;;;;5.00;4.53;;;14.40;99.90;;;;;;4934093;29;20207;-76
2022/09/11 04:21:29;;;;;;;3.60;3.30;;;14.40;99.90;;;;;;4934203;29;20222;-76
2022/09/11 04:23:59;;;;;;;3.77;3.37;;;14.50;99.90;;;;;;4933673;29;20233;-76
2022/09/11 04:26:30;;;;;;;7.77;6.90;;;14.40;99.90;;;;;;4933101;29;20582;-75
2022/09/11 04:29:03;;;;;;;4.87;3.90;;;14.40;99.90;;;;;;4932584;29;20234;-75
2022/09/11 04:31:31;;;;;;;5.57;4.63;;;14.40;99.90;;;;;;4933812;29;20223;-75
2022/09/11 04:33:59;;;;;;;7.30;5.33;;;14.40;99.90;;;;;;4933166;29;20283;-75
2022/09/11 04:36:30;;;;;;;7.50;7.00;;;14.40;99.90;;;;;;4931704;29;20208;-76
2022/09/11 04:38:59;;;;;;;8.97;8.27;;;14.40;99.90;;;;;;4929714;29;20615;-75
2022/09/11 04:41:28;;;;;;;8.50;7.90;;;14.40;99.90;;;;;;4933730;29;20247;-78
2022/09/11 04:43:59;;;;;;;4.87;4.37;;;14.40;99.90;;;;;;4933481;29;20775;-77
2022/09/11 04:46:26;;;;;;;10.77;9.87;;;14.40;99.90;;;;;;4933762;29;20288;-75
2022/09/11 04:48:55;;;;;;;6.00;4.10;;;14.40;99.90;;;;;;4934152;29;20234;-76
2022/09/11 04:51:26;;;;;;;4.53;4.10;;;14.30;99.90;;;;;;4931983;29;20227;-76
2022/09/11 04:53:56;;;;;;;5.00;4.47;;;14.40;99.90;;;;;;4931942;29;20215;-75
2022/09/11 04:56:27;;;;;;;4.90;4.50;;;14.30;99.90;;;;;;4933451;29;20197;-76
2022/09/11 04:58:57;;;;;;;5.10;4.63;;;14.40;99.90;;;;;;4933428;29;20203;-76
2022/09/11 05:01:28;;;;;;;4.53;4.20;;;14.30;99.90;;;;;;4933275;29;20273;-75
2022/09/11 05:04:00;;;;;;;5.57;4.50;;;14.30;99.90;;;;;;4932994;29;20211;-76
2022/09/11 05:06:29;;;;;;;4.80;4.40;;;14.30;99.90;;;;;;4933285;29;20286;-76
2022/09/11 05:09:02;;;;;;;4.53;4.23;;;14.40;99.90;;;;;;4933331;29;20278;-76
2022/09/11 05:11:32;;;;;;;4.70;4.30;;;14.30;99.90;;;;;;4933080;29;20227;-76
2022/09/11 05:13:59;;;;;;;4.97;4.57;;;14.30;99.90;;;;;;4934281;29;20684;-76
2022/09/11 05:16:29;;;;;;;4.47;4.00;;;14.40;99.90;;;;;;4933106;29;20200;-76
2022/09/11 05:18:57;;;;;;;5.67;4.80;;;14.40;99.90;;;;;;4933075;29;20203;-76
2022/09/11 05:21:26;;;;;;;5.37;4.63;;;14.40;99.90;;;;;;4933095;29;20314;-76
2022/09/11 05:23:55;;;;;;;4.67;4.27;;;14.40;99.90;;;;;;4932900;29;20272;-76
2022/09/11 05:26:23;;;;;;;6.03;5.63;;;14.50;99.90;;;;;;4933291;29;20208;-76
2022/09/11 05:28:55;;;;;;;10.63;9.97;;;14.40;99.90;;;;;;4932972;29;20568;-75
2022/09/11 05:31:25;;;;;;;3.60;3.30;;;14.50;99.90;;;;;;4932599;29;20292;-76
2022/09/11 05:33:54;;;;;;;11.63;10.87;;;14.50;99.90;;;;;;4932959;29;20247;-75
2022/09/11 05:36:22;;;;;;;9.47;8.80;;;14.50;99.90;;;;;;4933254;29;20673;-76
2022/09/11 05:38:49;;;;;;;10.50;9.80;;;14.50;99.90;;;;;;4929929;29;20212;-76
2022/09/11 05:41:16;;;;;;;11.00;10.20;;;14.60;99.90;;;;;;4930252;29;20223;-76
2022/09/11 05:43:43;;;;;;;9.70;9.10;;;14.60;99.90;;;;;;4932319;29;20607;-75
2022/09/11 05:46:14;;;;;;;11.90;11.03;;;14.60;99.90;;;;;;4932449;29;20195;-75
2022/09/11 05:48:41;;;;;;;11.00;10.40;;;14.60;99.90;;;;;;4934469;29;20570;-76
2022/09/11 05:51:11;;;;;;;13.00;12.10;;;14.60;99.90;;;;;;4925126;29;20240;-76
2022/09/11 05:53:39;;;;;;;13.07;11.93;;;14.70;99.90;;;;;;4932713;29;20205;-76
2022/09/11 05:56:08;;;;;;;9.90;9.30;;;14.80;99.90;;;;;;4932719;29;20223;-76
2022/09/11 05:58:36;;;;;;;10.53;9.73;;;14.70;99.90;;;;;;4932875;29;20203;-76
2022/09/11 06:01:06;;;;;;;11.97;11.13;;;14.80;99.90;;;;;;4933190;29;20222;-76
2022/09/11 06:03:36;;;;;;;10.03;9.43;;;14.80;99.90;;;;;;4933291;29;20211;-75
2022/09/11 06:06:04;;;;;;;10.70;10.00;;;14.80;99.90;;;;;;4933533;29;20201;-76
2022/09/11 06:08:33;;;;;;;11.23;10.53;;;14.90;99.90;;;;;;4933242;29;20214;-76
2022/09/11 06:11:01;;;;;;;10.47;9.87;;;15.00;99.90;;;;;;4933331;29;20572;-76
2022/09/11 06:13:30;;;;;;;11.23;10.43;;;15.00;99.90;;;;;;4933411;29;20283;-77
2022/09/11 06:16:01;;;;;;;3.83;3.47;;;15.10;99.90;;;;;;4933370;29;20684;-77
2022/09/11 06:18:29;;;;;;;3.20;3.00;;;15.10;99.90;;;;;;4931978;29;20713;-76
2022/09/11 06:20:58;;;;;;;3.40;3.10;;;15.20;99.90;;;;;;4933090;29;20233;-75
2022/09/11 06:23:26;;;;;;;3.40;3.10;;;15.20;99.90;;;;;;4932409;29;20222;-76
2022/09/11 06:26:02;;;;;;;4.13;3.10;;;15.20;99.90;;;;;;4933112;29;20220;-76
2022/09/11 06:28:31;;;;;;;3.47;3.10;;;15.30;99.90;;;;;;4933211;29;20202;-76
2022/09/11 06:31:01;;;;;;;3.67;3.37;;;15.30;99.90;;;;;;4932761;29;20227;-76
2022/09/11 06:33:31;;;;;;;3.33;3.13;;;15.40;99.90;;;;;;4932480;29;20265;-77
2022/09/11 06:36:00;;;;;;;4.00;3.60;;;15.50;99.90;;;;;;4932597;29;20210;-76
2022/09/11 06:38:28;;;;;;;3.60;3.30;;;15.50;99.90;;;;;;4931897;29;20203;-76
2022/09/11 06:40:55;;;;;;;3.57;3.27;;;15.60;99.90;;;;;;4931675;29;20546;-76
2022/09/11 06:43:22;;;;;;;4.13;3.30;;;15.60;99.90;;;;;;4932383;29;20235;-76
2022/09/11 06:45:50;;;;;;;4.27;3.10;;;15.70;99.90;;;;;;4934252;29;20212;-78
2022/09/11 06:48:17;;;;;;;3.20;3.00;;;15.70;99.90;;;;;;4934006;29;20704;-76
2022/09/11 06:50:45;;;;;;;3.57;3.27;;;15.70;99.90;;;;;;4933503;29;20216;-75
2022/09/11 06:53:14;;;;;;;3.77;3.20;;;15.70;99.90;;;;;;4932985;29;20558;-74
2022/09/11 06:55:48;;;;;;;3.60;3.30;;;15.80;99.90;;;;;;4933920;29;20230;-74
2022/09/11 06:58:16;;;;;;;3.73;3.43;;;15.70;99.90;;;;;;4933610;29;20250;-75
2022/09/11 07:00:43;;;;;;;3.43;3.13;;;15.80;99.90;;;;;;4935087;29;20320;-74
2022/09/11 07:03:12;;;;;;;4.87;3.20;;;15.80;99.90;;;;;;4927735;29;20222;-74
2022/09/11 07:05:38;;;;;;;3.20;3.00;;;15.90;99.90;;;;;;4936813;29;20206;-75
2022/09/11 07:08:05;;;;;;;3.57;3.27;;;15.90;99.90;;;;;;4935402;29;20203;-75
2022/09/11 07:10:36;;;;;;;3.00;2.70;;;16.10;99.90;;;;;;4935464;29;20230;-74
2022/09/11 07:13:04;;;;;;;3.47;3.17;;;16.20;99.90;;;;;;4935211;29;20195;-75
2022/09/11 07:15:31;;;;;;;3.30;3.00;;;16.20;99.90;;;;;;4935283;29;20203;-75
2022/09/11 07:18:00;;;;;;;4.20;3.90;;;16.40;99.90;;;;;;4935220;29;20242;-75
2022/09/11 07:20:27;;;;;;;5.20;4.80;;;16.50;99.90;;;;;;4934980;29;20631;-74
2022/09/11 07:22:54;;;;;;;6.63;6.20;;;16.60;99.90;;;;;;4935087;29;20242;-75
2022/09/11 07:25:21;;;;;;;7.67;7.20;;;16.50;99.90;;;;;;4934903;29;20201;-75
2022/09/11 07:27:50;;;;;;;7.87;7.37;;;16.60;99.90;;;;;;4935041;29;20199;-75
2022/09/11 07:30:17;;;;;;;6.33;3.27;;;16.70;99.90;;;;;;4935034;29;20226;-75
2022/09/11 07:32:48;;;;;;;8.27;7.70;;;16.80;99.90;;;;;;4934830;29;20226;-75
2022/09/11 07:35:20;;;;;;;3.30;3.10;;;16.90;99.90;;;;;;4934718;29;20708;-74
2022/09/11 07:37:48;;;;;;;9.50;8.90;;;16.90;99.90;;;;;;4934845;29;20629;-75
2022/09/11 07:40:15;;;;;;;9.80;9.20;;;16.90;99.90;;;;;;4934707;29;20601;-75
2022/09/11 07:42:42;;;;;;;9.40;8.90;;;17.00;99.90;;;;;;4934689;29;20206;-75
2022/09/11 07:45:12;;;;;;;9.13;8.63;;;17.00;99.90;;;;;;4942709;29;20270;-75
2022/09/11 07:47:40;;;;;;;9.60;8.90;;;16.90;99.90;;;;;;4934553;29;20225;-74
2022/09/11 07:50:07;;;;;;;9.30;8.70;;;16.90;99.90;;;;;;4934443;29;20223;-75
2022/09/11 07:52:36;;;;;;;9.10;8.50;;;16.80;99.90;;;;;;4934052;29;20301;-75
2022/09/11 07:55:05;;;;;;;8.37;7.87;;;16.80;99.90;;;;;;4934028;29;20586;-74
2022/09/11 07:57:34;;;;;;;8.20;7.70;;;16.90;99.90;;;;;;4934430;29;20739;-75
2022/09/11 08:00:06;;;;;;;9.03;8.53;;;16.90;99.90;;;;;;4934413;29;20314;-75
2022/09/11 08:02:48;;;;;;;9.57;8.87;;;17.00;99.90;;;;;;4935539;29;20207;-75
2022/09/11 08:05:22;;;;;;;9.30;8.70;;;17.00;99.90;;;;;;4934210;29;20326;-75
2022/09/11 08:07:49;;;;;;;8.57;8.07;;;17.10;99.90;;;;;;4934156;29;20281;-75
2022/09/11 08:10:16;;;;;;;8.93;8.30;;;17.10;99.90;;;;;;4934017;29;20243;-75
2022/09/11 08:12:43;;;;;;;8.83;8.33;;;17.20;99.90;;;;;;4935266;29;20203;-74
2022/09/11 08:15:10;;;;;;;9.43;8.83;;;17.20;99.90;;;;;;4933885;29;20752;-74
2022/09/11 08:17:36;;;;;;;8.50;8.00;;;17.10;99.90;;;;;;4935388;29;20673;-75
2022/09/11 08:20:05;;;;;;;8.67;8.07;;;17.10;99.90;;;;;;4935235;29;20306;-75
2022/09/11 08:22:33;;;;;;;9.00;8.40;;;17.10;99.90;;;;;;4933909;29;20295;-74
2022/09/11 08:25:00;;;;;;;8.60;8.10;;;17.10;99.90;;;;;;4933683;29;20223;-75
2022/09/11 08:27:27;;;;;;;10.23;9.63;;;17.20;99.90;;;;;;4933969;29;20203;-75
2022/09/11 08:29:54;;;;;;;9.73;9.13;;;17.30;99.90;;;;;;4933810;29;20250;-75
2022/09/11 08:32:21;;;;;;;2.83;2.67;;;17.30;99.90;;;;;;4933914;29;20202;-75
2022/09/11 08:34:49;;;;;;;3.63;2.67;;;17.40;99.90;;;;;;4933626;29;20203;-75
2022/09/11 08:37:18;;;;;;;5.50;5.17;;;17.40;99.90;;;;;;4933730;29;20204;-75
2022/09/11 08:39:46;;;;;;;2.70;2.60;;;17.50;99.90;;;;;;4933649;29;20234;-75
2022/09/11 08:42:15;;;;;;;2.67;2.47;;;17.70;99.90;;;;;;4933690;29;20200;-75
2022/09/11 08:44:48;;;;;;;9.93;9.33;;;17.80;99.90;;;;;;4933464;29;20294;-75
2022/09/11 08:47:40;;;;;;;3.67;3.47;;;17.90;99.90;;;;;;4927882;29;20498;-75
2022/09/11 08:50:16;;;;;;;6.80;6.37;;;18.00;99.90;;;;;;4925870;29;20223;-75
2022/09/11 08:52:47;;;;;;;8.77;8.10;;;18.10;99.90;;;;;;4933657;29;20208;-75
2022/09/11 08:55:21;;;;;;;9.20;8.57;;;18.20;99.90;;;;;;4933025;29;20196;-75
2022/09/11 08:57:55;;;;;;;9.30;8.77;;;18.20;99.90;;;;;;4933242;29;20668;-75
2022/09/11 09:00:32;;;;;;;9.53;8.93;;;18.40;99.90;;;;;;4933357;29;20618;-75
2022/09/11 09:03:29;;;;;;;4.67;4.37;;;18.60;99.90;;;;;;4934643;29;20206;-75
2022/09/11 09:06:12;;;;;;;8.70;8.10;;;18.90;99.90;;;;;;4932545;29;20206;-75
2022/09/11 09:08:50;;;;;;;8.70;8.20;;;19.00;99.90;;;;;;4934704;29;20197;-75
2022/09/11 09:11:27;;;;;;;3.20;3.00;;;19.20;99.90;;;;;;4926611;29;20262;-74
2022/09/11 09:14:10;;;;;;;7.83;7.20;;;19.30;99.90;;;;;;4933136;29;20236;-75
2022/09/11 09:16:48;;;;;;;5.00;4.60;;;19.50;99.90;;;;;;4933275;29;20218;-75
2022/09/11 09:19:20;;;;;;;4.90;4.50;;;19.90;99.90;;;;;;4933332;29;20206;-75
2022/09/11 09:21:57;;;;;;;6.60;6.10;;;20.60;99.90;;;;;;4933091;29;20222;-75
2022/09/11 09:24:30;;;;;;;3.57;3.33;;;21.10;99.90;;;;;;4932864;29;20207;-75
2022/09/11 09:26:57;;;;;;;6.67;6.23;;;21.20;99.90;;;;;;4933140;29;20211;-75
2022/09/11 09:29:34;;;;;;;5.27;4.93;;;21.70;99.90;;;;;;4933155;29;20203;-75
2022/09/11 09:32:05;;;;;;;7.00;6.50;;;21.70;99.90;;;;;;4934506;29;20203;-75
2022/09/11 09:34:37;;;;;;;3.37;3.17;;;21.20;99.90;;;;;;4932912;29;20672;-75
2022/09/11 09:37:11;;;;;;;6.47;6.07;;;21.10;99.90;;;;;;4932916;29;20203;-76
2022/09/11 09:39:40;;;;;;;3.43;3.17;;;20.80;99.90;;;;;;4933170;29;20214;-75
2022/09/11 09:42:27;;;;;;;3.43;3.13;;;20.60;99.90;;;;;;4933024;29;20235;-75
2022/09/11 09:45:14;;;;;;;3.37;3.10;;;20.40;99.90;;;;;;4932795;29;20222;-75
2022/09/11 09:47:45;;;;;;;9.37;8.87;;;20.10;99.90;;;;;;4932997;29;20562;-76
2022/09/11 09:50:19;;;;;;;8.03;7.53;;;19.80;99.90;;;;;;4939684;29;20314;-75
2022/09/11 09:52:47;;;;;;;3.33;3.03;;;19.50;99.90;;;;;;4932935;29;20202;-76
2022/09/11 09:55:18;;;;;;;8.73;8.23;;;19.30;99.90;;;;;;4931096;29;20191;-75
2022/09/11 09:57:44;;;;;;;8.73;8.23;;;19.20;99.90;;;;;;4934016;29;20202;-75
2022/09/11 10:00:17;;;;;;;8.50;7.90;;;19.20;99.90;;;;;;4933738;29;20230;-75
2022/09/11 10:02:48;;;;;;;9.47;8.87;;;19.10;99.90;;;;;;4932708;29;20213;-75
2022/09/11 10:05:23;;;;;;;8.90;8.30;;;19.00;99.90;;;;;;4934047;29;20244;-75
2022/09/11 10:07:52;;;;;;;7.57;7.17;;;18.90;99.90;;;;;;4933965;29;20744;-75
2022/09/11 10:10:27;;;;;;;8.57;7.97;;;19.00;99.90;;;;;;4930291;29;20237;-76
2022/09/11 10:12:57;;;;;;;8.70;8.20;;;19.10;99.90;;;;;;4932346;29;20316;-76
2022/09/11 10:15:24;;;;;;;8.97;8.47;;;19.30;99.90;;;;;;4911240;29;20196;-77
2022/09/11 10:17:52;;;;;;;8.80;8.20;;;19.40;99.90;;;;;;4922777;29;20208;-75
2022/09/11 10:20:27;;;;;;;9.00;8.30;;;19.60;99.90;;;;;;4923810;29;20230;-76
2022/09/11 10:22:55;;;;;;;8.90;8.20;;;19.80;99.90;;;;;;4933861;29;20198;-77
2022/09/11 10:25:25;;;;;;;3.70;3.40;;;20.00;99.90;;;;;;4934674;29;20226;-77
2022/09/11 10:28:09;;;;;;;3.50;3.20;;;20.10;99.90;;;;;;4932782;29;20251;-76
2022/09/11 10:30:38;;;;;;;3.90;3.50;;;20.30;99.90;;;;;;4932931;29;20658;-79
2022/09/11 10:33:15;;;;;;;3.80;3.50;;;20.40;99.90;;;;;;4936021;29;20207;-77
2022/09/11 10:35:51;;;;;;;8.63;8.10;;;20.40;99.90;;;;;;4937025;29;20620;-77
2022/09/11 10:38:19;;;;;;;9.03;8.40;;;20.30;99.90;;;;;;4929493;29;20195;-77
2022/09/11 10:41:03;;;;;;;9.17;8.57;;;20.20;99.90;;;;;;4937412;29;20219;-76
2022/09/11 10:43:36;;;;;;;8.70;8.10;;;20.00;99.90;;;;;;4930594;29;20207;-76
2022/09/11 10:46:05;;;;;;;9.50;8.90;;;19.90;99.90;;;;;;4936760;29;20709;-76
2022/09/11 10:48:32;;;;;;;8.83;8.23;;;19.90;99.90;;;;;;4937130;29;20261;-77
2022/09/11 10:51:10;;;;;;;8.13;7.53;;;19.90;99.90;;;;;;4932272;29;20767;-76
2022/09/11 10:53:47;;;;;;;9.10;8.57;;;19.90;99.90;;;;;;4936127;29;20690;-76
2022/09/11 10:56:16;;;;;;;9.47;8.87;;;20.00;99.90;;;;;;4948239;28;20610;-76
2022/09/11 10:58:47;;;;;;;9.70;9.00;;;20.20;99.90;;;;;;4936840;29;20204;-76
2022/09/11 11:01:14;;;;;;;9.13;8.43;;;20.30;99.90;;;;;;4936601;29;20671;-75
2022/09/11 11:03:41;;;;;;;8.87;8.27;;;20.50;99.90;;;;;;4935635;29;20677;-77
2022/09/11 11:06:24;;;;;;;8.90;8.33;;;20.60;99.90;;;;;;4936849;29;20262;-76
2022/09/11 11:09:11;;;;;;;9.37;8.77;;;21.00;99.90;;;;;;4936107;29;20212;-76
2022/09/11 11:11:50;;;;;;;9.10;8.50;;;21.20;99.90;;;;;;4934288;29;20290;-76
2022/09/11 11:14:39;;;;;;;4.43;3.90;;;21.60;99.90;;;;;;4932892;29;20631;-76
2022/09/11 11:17:19;;;;;;;8.07;7.53;;;21.60;99.90;;;;;;4924555;29;20582;-77
2022/09/11 11:20:04;;;;;;;8.07;7.47;;;21.90;99.90;;;;;;4937762;29;20202;-76
2022/09/11 11:22:52;;;;;;;9.80;9.10;;;22.40;99.90;;;;;;4931518;29;20199;-76
2022/09/11 11:25:25;;;;;;;9.40;8.80;;;22.70;99.90;;;;;;4931516;29;20758;-76
2022/09/11 11:28:06;;;;;;;8.57;8.07;;;22.50;99.90;;;;;;4937157;29;20673;-76
2022/09/11 11:30:39;;;;;;;5.60;5.10;;;22.30;99.90;;;;;;4942523;28;20230;-78
2022/09/11 11:33:34;;;;;;;4.07;3.73;;;22.10;99.90;;;;;;4935955;29;20207;-77
2022/09/11 11:36:07;;;;;;;4.13;3.67;;;22.10;99.90;;;;;;4934214;29;20681;-76
2022/09/11 11:38:42;;;;;;;4.10;3.80;;;22.10;99.90;;;;;;4936591;29;20203;-77
2022/09/11 11:41:15;;;;;;;6.83;6.33;;;22.30;99.90;;;;;;4931502;29;20727;-77
2022/09/11 11:43:47;;;;;;;4.70;3.53;;;22.00;99.90;;;;;;4937532;29;20200;-77
2022/09/11 11:46:18;;;;;;;6.23;5.77;;;22.00;99.90;;;;;;4944891;28;20216;-77
2022/09/11 11:48:51;;;;;;;8.80;8.20;;;22.00;99.90;;;;;;4937476;29;20550;-76
2022/09/11 11:51:20;;;;;;;7.97;7.47;;;22.30;99.90;;;;;;4936554;29;20223;-76
2022/09/11 11:53:57;;;;;;;8.77;8.17;;;22.50;99.90;;;;;;4935934;29;20203;-77
2022/09/11 11:56:32;;;;;;;8.60;8.00;;;22.50;99.90;;;;;;4937221;29;20187;-77
2022/09/11 11:59:06;;;;;;;9.10;8.50;;;22.50;99.90;;;;;;4937555;29;20279;-77
2022/09/11 12:01:39;;;;;;;9.03;8.33;;;22.50;99.90;;;;;;4937154;29;20226;-77
2022/09/11 12:04:17;;;;;;;8.80;8.20;;;22.30;99.90;;;;;;4935599;29;20483;-77
2022/09/11 12:06:44;;;;;;;8.67;8.13;;;22.00;99.90;;;;;;4936519;29;20318;-76
2022/09/11 12:09:15;;;;;;;7.50;6.90;;;21.90;99.90;;;;;;4937115;29;20195;-77
2022/09/11 12:11:46;;;;;;;8.40;7.90;;;21.70;99.90;;;;;;4932574;29;20238;-76
2022/09/11 12:14:26;;;;;;;8.50;7.90;;;21.60;99.90;;;;;;4930536;29;20635;-77
2022/09/11 12:16:55;;;;;;;8.80;8.20;;;21.50;99.90;;;;;;4930955;29;20236;-77
2022/09/11 12:19:24;;;;;;;9.27;8.67;;;21.30;99.90;;;;;;4936576;29;20207;-76
2022/09/11 12:22:13;;;;;;;9.17;8.57;;;21.00;99.90;;;;;;4931254;29;20231;-76
2022/09/11 12:24:57;;;;;;;9.63;8.93;;;20.90;99.90;;;;;;4935464;29;20199;-76
2022/09/11 12:27:50;;;;;;;9.40;8.80;;;20.80;99.90;;;;;;4925197;29;20211;-77
2022/09/11 12:30:26;;;;;;;8.67;8.07;;;20.60;99.90;;;;;;4930594;29;20235;-77
2022/09/11 12:32:55;;;;;;;4.33;3.87;;;20.60;99.90;;;;;;4929192;29;20207;-77
2022/09/11 12:35:27;;;;;;;9.80;9.20;;;20.50;99.90;;;;;;4928919;29;20203;-76
2022/09/11 12:37:59;;;;;;;8.03;7.53;;;20.50;99.90;;;;;;4934583;29;20204;-76
2022/09/11 12:40:33;;;;;;;8.50;8.00;;;20.50;99.90;;;;;;4932812;29;20278;-76
2022/09/11 12:43:19;;;;;;;8.50;7.90;;;20.50;99.90;;;;;;4934455;29;20627;-75
2022/09/11 12:45:47;;;;;;;9.33;8.73;;;20.60;99.90;;;;;;4934380;29;20223;-75
2022/09/11 12:48:19;;;;;;;7.53;7.03;;;20.60;99.90;;;;;;4933844;29;20246;-76
2022/09/11 12:50:51;;;;;;;6.03;5.63;;;20.60;99.90;;;;;;4935932;28;20226;-76
2022/09/11 12:53:23;;;;;;;5.23;4.83;;;20.70;99.90;;;;;;4934183;29;20200;-76
2022/09/11 12:55:55;;;;;;;5.37;4.97;;;20.90;99.90;;;;;;4927426;29;20466;-76
2022/09/11 12:58:27;;;;;;;9.00;8.40;;;21.00;99.90;;;;;;4925093;29;20247;-76
2022/09/11 13:01:11;;;;;;;9.43;8.83;;;21.10;99.90;;;;;;4932368;29;20291;-77
2022/09/11 13:03:47;;;;;;;4.43;4.03;;;21.30;99.90;;;;;;4934187;29;20195;-76
2022/09/11 13:06:15;;;;;;;4.40;4.00;;;21.20;99.90;;;;;;4927478;29;20225;-76
2022/09/11 13:08:48;;;;;;;9.70;9.00;;;21.10;99.90;;;;;;4934607;29;20575;-77